Date,TemperatureHighF,TemperatureAvgF,TemperatureLowF,DewpointHighF,DewpointAvgF,DewpointLowF,HumidityHigh,HumidityAvg,HumidityLow,PressureMaxIn,PressureMinIn,WindSpeedMaxMPH,WindSpeedAvgMPH,GustSpeedMaxMPH,PrecipitationSumIn
2012-12-1,59,46,36,52,42,33,96,87,73,30.22,29.94,0,0,0,0.01
2012-12-2,59,54,43,55,50,42,97,89,71,30.10,29.88,0,0,0,0.27
2012-12-3,64,55,42,61,54,41,99,95,82,30.10,29.86,0,0,0,0.01
2012-12-4,64,51,40,59,44,32,93,77,53,30.21,29.86,0,0,0,0.07
2012-12-5,40,34,30,32,24,22,81,68,53,30.47,30.21,0,0,0,0.00
2012-12-6,41,35,30,36,29,24,86,79,70,30.34,29.98,0,0,0,0.00
2012-12-7,46,43,40,43,41,36,97,93,86,29.98,29.89,0,0,0,0.06
2012-12-8,43,38,33,42,35,29,97,90,81,30.18,29.84,0,0,0,0.12
2012-12-9,40,36,33,40,34,30,98,91,85,30.18,29.68,0,0,0,0.13
2012-12-10,42,37,31,41,33,25,98,87,75,29.93,29.66,0,0,0,0.03
2012-12-11,35,32,30,29,25,21,93,77,59,30.16,29.92,0,0,0,0.00
2012-12-12,44,35,28,29,27,24,87,73,52,30.37,30.16,0,0,0,0.00
2012-12-13,48,37,30,30,28,26,86,70,48,30.36,30.16,0,0,0,0.00
2012-12-14,50,39,29,35,31,26,89,73,55,30.26,30.15,0,0,0,0.00
2012-12-15,48,40,33,47,37,30,97,88,71,30.15,29.63,0,0,0,0.10
2012-12-16,50,46,41,48,45,39,98,94,90,29.70,29.60,0,0,0,0.07
2012-12-17,42,40,35,39,36,32,93,86,78,29.74,29.66,0,0,0,0.00
2012-12-18,40,36,31,36,32,29,95,88,76,29.82,29.70,0,0,0,0.04
2012-12-19,42,38,34,37,36,32,95,89,79,30.11,29.73,0,0,0,0.00
2012-12-20,48,41,35,47,38,33,96,92,78,30.01,29.09,0,0,0,0.80
2012-12-21,36,34,33,34,30,26,95,85,74,30.05,29.14,0,0,0,0.01
2012-12-22,37,31,25,28,25,21,87,78,66,30.17,30.04,0,0,0,0.01
2012-12-23,34,28,22,28,24,20,91,82,73,30.08,29.94,0,0,0,0.00
2012-12-24,31,28,25,27,24,22,92,86,81,30.08,29.87,0,0,0,0.00
2012-12-25,34,27,20,26,22,18,93,81,68,30.37,30.07,0,0,0,0.00
2012-12-26,30,28,23,27,24,20,95,85,74,30.30,29.95,0,0,0,0.00
2012-12-27,32,26,22,26,22,19,91,85,77,30.21,30.04,0,0,0,0.01
2012-12-28,32,29,26,29,26,23,93,89,87,30.20,29.95,0,0,0,0.01
2012-12-29,30,28,26,28,26,24,94,91,89,30.14,29.87,0,0,0,0.00
2012-12-30,30,26,22,29,22,18,95,87,77,30.37,30.14,0,0,0,0.00
2012-12-31,36,31,25,31,26,22,89,82,78,30.21,29.98,0,0,0,0.00